createdAt,value
2018-03-07T00:00:52.422Z,13.39
2018-03-07T00:03:23.882Z,13.54
2018-03-07T00:05:54.998Z,13.48
2018-03-07T00:08:26.489Z,13.40
2018-03-07T00:10:57.510Z,13.36
2018-03-07T00:13:28.541Z,13.33
2018-03-07T00:16:00.944Z,13.37
2018-03-07T00:18:32.164Z,13.38
2018-03-07T00:21:03.386Z,13.36
2018-03-07T00:23:35.878Z,13.41
2018-03-07T00:26:06.845Z,13.32
2018-03-07T00:28:38.089Z,13.25
2018-03-07T00:31:09.540Z,13.20
2018-03-07T00:33:40.902Z,13.07
2018-03-07T00:36:12.123Z,13.07
2018-03-07T00:41:23.502Z,12.88
2018-03-07T00:43:54.965Z,12.88
2018-03-07T00:46:26.919Z,12.92
2018-03-07T00:49:00.371Z,12.99
2018-03-07T00:51:31.734Z,13.00
2018-03-07T00:54:03.425Z,12.96
2018-03-07T00:56:34.938Z,12.87
2018-03-07T00:59:06.951Z,12.79
2018-03-07T01:01:38.679Z,12.72
2018-03-07T01:04:10.185Z,12.76
2018-03-07T01:06:41.993Z,12.78
2018-03-07T01:09:13.633Z,12.75
2018-03-07T01:11:46.079Z,12.77
2018-03-07T01:14:17.632Z,12.76
2018-03-07T01:16:50.970Z,12.75
2018-03-07T01:19:22.548Z,12.75
2018-03-07T01:21:53.999Z,12.74
2018-03-07T01:24:25.356Z,12.73
2018-03-07T01:26:56.722Z,12.16
2018-03-07T01:29:33.731Z,11.79
2018-03-07T01:32:06.236Z,11.84
2018-03-07T01:34:38.939Z,12.06
2018-03-07T01:37:10.859Z,12.18
2018-03-07T01:39:42.464Z,12.18
2018-03-07T01:42:13.860Z,12.19
2018-03-07T01:44:47.060Z,11.89
2018-03-07T01:47:19.069Z,11.67
2018-03-07T01:49:51.574Z,11.71
2018-03-07T01:52:23.179Z,11.82
2018-03-07T01:54:54.502Z,11.75
2018-03-07T01:57:25.847Z,11.64
2018-03-07T01:59:58.070Z,11.62
2018-03-07T02:02:30.072Z,11.66
2018-03-07T02:05:01.370Z,11.73
2018-03-07T02:07:32.603Z,11.82
2018-03-07T02:10:04.102Z,11.86
2018-03-07T02:12:35.606Z,11.69
2018-03-07T02:15:08.539Z,11.67
2018-03-07T02:17:39.648Z,11.55
2018-03-07T02:20:17.214Z,11.38
2018-03-07T02:22:48.155Z,11.45
2018-03-07T02:25:19.266Z,11.32
2018-03-07T02:27:52.411Z,11.28
2018-03-07T02:30:23.672Z,11.38
2018-03-07T02:32:54.599Z,11.50
2018-03-07T02:35:27.296Z,11.57
2018-03-07T02:37:58.459Z,11.67
2018-03-07T02:40:29.424Z,11.73
2018-03-07T02:43:00.438Z,11.60
2018-03-07T02:45:31.487Z,11.53
2018-03-07T02:48:03.432Z,11.43
2018-03-07T02:50:34.520Z,11.19
2018-03-07T02:53:05.934Z,11.23
2018-03-07T02:55:38.652Z,11.18
2018-03-07T02:58:09.828Z,11.18
2018-03-07T03:00:41.615Z,11.11
2018-03-07T03:03:13.341Z,11.18
2018-03-07T03:05:45.247Z,11.14
2018-03-07T03:08:16.885Z,11.13
2018-03-07T03:10:49.142Z,11.14
2018-03-07T03:13:21.636Z,11.20
2018-03-07T03:15:52.758Z,11.23
2018-03-07T03:18:23.522Z,11.26
2018-03-07T03:20:54.410Z,11.29
2018-03-07T03:23:25.122Z,11.14
2018-03-07T03:25:56.363Z,10.83
2018-03-07T03:28:27.827Z,10.55
2018-03-07T03:30:59.194Z,10.40
2018-03-07T03:33:30.619Z,10.27
2018-03-07T03:36:01.972Z,10.29
2018-03-07T03:38:32.883Z,10.36
2018-03-07T03:41:03.679Z,10.32
2018-03-07T03:43:34.531Z,10.14
2018-03-07T03:46:05.497Z,10.18
2018-03-07T03:48:36.868Z,10.12
2018-03-07T03:51:08.006Z,9.85
2018-03-07T03:53:38.603Z,9.62
2018-03-07T03:56:09.432Z,9.69
2018-03-07T03:58:40.129Z,9.48
2018-03-07T04:01:11.801Z,9.43
2018-03-07T04:03:44.156Z,9.35
2018-03-07T04:06:15.796Z,9.24
2018-03-07T04:08:46.707Z,9.35
2018-03-07T04:11:17.472Z,9.50
2018-03-07T04:13:48.285Z,9.45
2018-03-07T04:16:20.458Z,9.27
2018-03-07T04:21:32.806Z,9.31
2018-03-07T04:24:03.776Z,9.39
2018-03-07T04:26:34.714Z,9.53
2018-03-07T04:29:06.004Z,9.58
2018-03-07T04:31:37.644Z,9.61
2018-03-07T04:34:09.051Z,9.61
2018-03-07T04:36:40.162Z,9.52
2018-03-07T04:39:11.182Z,9.46
2018-03-07T04:41:42.363Z,9.44
2018-03-07T04:44:13.610Z,9.44
2018-03-07T04:46:45.605Z,9.43
2018-03-07T04:49:16.825Z,9.36
2018-03-07T04:51:47.567Z,9.29
2018-03-07T04:54:19.011Z,9.17
2018-03-07T04:56:50.121Z,8.95
2018-03-07T04:59:20.801Z,8.91
2018-03-07T05:01:52.766Z,8.89
2018-03-07T05:04:23.358Z,8.81
2018-03-07T05:06:55.287Z,8.88
2018-03-07T05:09:26.127Z,8.89
2018-03-07T05:11:58.113Z,8.99
2018-03-07T05:14:29.244Z,9.11
2018-03-07T05:17:00.965Z,9.03
2018-03-07T05:19:32.731Z,8.81
2018-03-07T05:22:03.845Z,8.58
2018-03-07T05:24:41.384Z,8.46
2018-03-07T05:27:12.808Z,8.48
2018-03-07T05:29:44.963Z,8.51
2018-03-07T05:32:16.033Z,8.49
2018-03-07T05:34:47.908Z,8.55
2018-03-07T05:37:19.144Z,8.67
2018-03-07T05:39:50.210Z,8.86
2018-03-07T05:42:21.860Z,8.88
2018-03-07T05:44:57.549Z,8.87
2018-03-07T05:47:30.465Z,8.90
2018-03-07T05:50:03.603Z,8.99
2018-03-07T05:52:35.348Z,9.07
2018-03-07T05:55:08.627Z,9.07
2018-03-07T05:57:40.377Z,9.13
2018-03-07T06:00:16.522Z,9.24
2018-03-07T06:02:53.312Z,9.24
2018-03-07T06:05:25.871Z,9.08
2018-03-07T06:08:12.490Z,9.16
2018-03-07T06:10:46.627Z,9.17
2018-03-07T06:13:18.503Z,9.08
2018-03-07T06:15:51.357Z,9.16
2018-03-07T06:18:23.298Z,9.23
2018-03-07T06:20:55.277Z,9.23
2018-03-07T06:23:28.543Z,9.08
2018-03-07T06:26:01.747Z,8.87
2018-03-07T06:28:32.949Z,8.97
2018-03-07T06:31:05.363Z,8.99
2018-03-07T06:33:37.606Z,9.10
2018-03-07T06:36:09.494Z,9.32
2018-03-07T06:38:41.401Z,9.30
2018-03-07T06:41:12.926Z,9.46
2018-03-07T06:43:44.453Z,9.51
2018-03-07T06:46:16.122Z,9.48
2018-03-07T06:48:47.702Z,9.56
2018-03-07T06:51:19.751Z,9.63
2018-03-07T06:56:40.323Z,9.74
2018-03-07T06:59:12.438Z,9.74
2018-03-07T07:01:50.113Z,9.56
2018-03-07T07:04:24.615Z,9.65
2018-03-07T07:07:04.713Z,9.75
2018-03-07T07:09:36.165Z,9.86
2018-03-07T07:12:15.440Z,9.99
2018-03-07T07:14:46.713Z,9.81
2018-03-07T07:17:19.021Z,10.27
2018-03-07T07:22:46.560Z,9.67
2018-03-07T07:25:17.868Z,9.27
2018-03-07T07:27:52.822Z,9.44
2018-03-07T07:30:25.908Z,9.40
2018-03-07T07:32:57.574Z,9.92
2018-03-07T07:35:34.947Z,10.08
2018-03-07T07:38:08.604Z,10.51
2018-03-07T07:40:40.331Z,10.82
2018-03-07T07:43:13.387Z,10.93
2018-03-07T07:45:45.630Z,11.25
2018-03-07T07:48:21.040Z,11.55
2018-03-07T07:50:53.861Z,11.74
2018-03-07T07:53:26.626Z,11.75
2018-03-07T07:55:58.230Z,12.11
2018-03-07T07:58:29.587Z,12.21
2018-03-07T08:01:01.753Z,12.22
2018-03-07T08:03:33.518Z,12.58
2018-03-07T08:06:06.467Z,12.57
2018-03-07T08:08:38.257Z,11.61
2018-03-07T08:11:13.553Z,12.30
2018-03-07T08:13:46.626Z,11.81
2018-03-07T08:16:19.036Z,10.35
2018-03-07T08:18:50.574Z,11.42
2018-03-07T08:21:23.248Z,11.48
2018-03-07T08:24:05.899Z,11.00
2018-03-07T08:26:38.401Z,11.58
2018-03-07T08:29:21.329Z,11.43
2018-03-07T08:31:56.401Z,11.20
2018-03-07T08:34:27.853Z,11.90
2018-03-07T08:37:00.077Z,12.64
2018-03-07T08:39:34.735Z,13.07
2018-03-07T08:42:09.910Z,13.50
2018-03-07T08:44:51.477Z,13.65
2018-03-07T08:47:23.882Z,13.95
2018-03-07T08:49:55.674Z,14.37
2018-03-07T08:52:27.132Z,14.68
2018-03-07T08:54:58.777Z,14.62
2018-03-07T08:57:31.611Z,14.69
2018-03-07T09:00:16.260Z,15.33
2018-03-07T09:02:48.654Z,15.70
2018-03-07T09:05:20.335Z,14.98
2018-03-07T09:07:52.846Z,15.28
2018-03-07T09:10:24.808Z,15.42
2018-03-07T09:12:56.107Z,15.66
2018-03-07T09:15:29.279Z,15.18
2018-03-07T09:18:00.691Z,14.37
2018-03-07T09:20:32.564Z,13.35
2018-03-07T09:23:03.825Z,13.39
2018-03-07T09:25:36.141Z,14.11
2018-03-07T09:28:25.834Z,14.13
2018-03-07T09:30:58.271Z,14.53
2018-03-07T09:33:31.770Z,13.86
2018-03-07T09:36:03.447Z,13.59
2018-03-07T09:38:35.349Z,12.78
2018-03-07T09:41:10.410Z,13.27
2018-03-07T09:43:43.729Z,12.84
2018-03-07T09:46:15.515Z,12.34
2018-03-07T09:48:48.322Z,12.47
2018-03-07T09:51:21.792Z,12.35
2018-03-07T09:53:55.902Z,13.78
2018-03-07T09:56:27.926Z,14.69
2018-03-07T09:58:58.845Z,15.21
2018-03-07T10:01:31.234Z,13.69
2018-03-07T10:04:03.517Z,14.31
2018-03-07T10:06:35.370Z,14.80
2018-03-07T10:09:08.151Z,13.99
2018-03-07T10:11:40.182Z,12.80
2018-03-07T10:14:12.302Z,13.12
2018-03-07T10:16:44.681Z,13.19
2018-03-07T10:19:17.001Z,13.03
2018-03-07T10:21:49.357Z,13.16
2018-03-07T10:24:21.208Z,13.05
2018-03-07T10:26:52.904Z,13.21
2018-03-07T10:29:24.260Z,12.94
2018-03-07T10:31:56.055Z,13.06
2018-03-07T10:34:27.874Z,12.62
2018-03-07T10:36:59.596Z,12.62
2018-03-07T10:39:31.347Z,12.40
2018-03-07T10:42:07.036Z,11.53
2018-03-07T10:44:43.188Z,11.39
2018-03-07T10:47:15.096Z,11.91
2018-03-07T10:49:46.861Z,12.05
2018-03-07T10:52:31.744Z,11.93
2018-03-07T10:55:04.266Z,12.01
2018-03-07T10:57:38.680Z,11.80
2018-03-07T11:00:20.645Z,12.05
2018-03-07T11:02:58.719Z,11.44
2018-03-07T11:05:32.088Z,10.94
2018-03-07T11:08:08.483Z,10.81
2018-03-07T11:10:39.845Z,10.47
2018-03-07T11:13:11.623Z,10.35
2018-03-07T11:15:43.836Z,10.47
2018-03-07T11:18:18.075Z,10.60
2018-03-07T11:20:49.896Z,10.98
2018-03-07T11:23:27.156Z,10.54
2018-03-07T11:25:58.783Z,10.25
2018-03-07T11:28:29.894Z,10.06
2018-03-07T11:31:03.890Z,9.81
2018-03-07T11:33:36.784Z,9.94
2018-03-07T11:36:13.413Z,10.22
2018-03-07T11:38:45.663Z,10.37
2018-03-07T11:41:18.898Z,9.92
2018-03-07T11:43:51.051Z,9.84
2018-03-07T11:46:23.862Z,9.74
2018-03-07T11:48:55.299Z,9.61
2018-03-07T11:51:26.473Z,10.25
2018-03-07T11:53:58.408Z,10.58
2018-03-07T11:56:30.734Z,10.68
2018-03-07T11:59:01.596Z,11.00
2018-03-07T12:01:33.304Z,11.18
2018-03-07T12:04:04.431Z,11.17
2018-03-07T12:06:35.594Z,10.76
2018-03-07T12:09:08.010Z,10.94
2018-03-07T12:11:40.689Z,10.96
2018-03-07T12:14:12.709Z,11.16
2018-03-07T12:16:45.196Z,11.48
2018-03-07T12:19:18.823Z,11.38
2018-03-07T12:21:49.928Z,11.44
2018-03-07T12:24:22.664Z,11.75
2018-03-07T12:26:53.758Z,11.86
2018-03-07T12:29:24.883Z,11.12
2018-03-07T12:31:56.657Z,11.06
2018-03-07T12:34:27.666Z,11.38
2018-03-07T12:36:58.444Z,11.50
2018-03-07T12:42:03.053Z,11.41
2018-03-07T12:44:34.684Z,11.81
2018-03-07T12:47:12.236Z,11.85
2018-03-07T12:52:07.487Z,11.68
2018-03-07T12:54:38.297Z,11.89
2018-03-07T12:57:11.108Z,12.04
2018-03-07T12:59:43.837Z,11.92
2018-03-07T13:02:16.818Z,11.97
2018-03-07T13:04:47.807Z,12.26
2018-03-07T13:07:19.062Z,12.41
2018-03-07T13:09:50.125Z,11.62
2018-03-07T13:12:22.779Z,11.99
2018-03-07T13:14:53.820Z,12.62
2018-03-07T13:17:25.051Z,12.25
2018-03-07T13:19:58.172Z,12.43
2018-03-07T13:22:30.722Z,12.47
2018-03-07T13:25:02.159Z,11.75
2018-03-07T13:27:34.732Z,11.77
2018-03-07T13:30:09.971Z,11.88
2018-03-07T13:32:43.174Z,11.61
2018-03-07T13:35:15.296Z,12.07
2018-03-07T13:37:49.563Z,12.00
2018-03-07T13:40:22.301Z,12.40
2018-03-07T13:42:55.990Z,12.41
2018-03-07T13:45:28.376Z,12.34
2018-03-07T13:48:02.148Z,12.08
2018-03-07T13:50:34.271Z,12.06
2018-03-07T13:53:07.264Z,12.17
2018-03-07T13:55:41.851Z,11.62
2018-03-07T13:58:17.803Z,11.95
2018-03-07T14:00:51.628Z,11.67
2018-03-07T14:03:39.730Z,11.72
2018-03-07T14:06:13.592Z,11.96
2018-03-07T14:08:47.418Z,11.76
2018-03-07T14:11:20.980Z,11.61
2018-03-07T14:13:53.043Z,11.33
2018-03-07T14:16:25.019Z,11.56
2018-03-07T14:18:56.707Z,11.37
2018-03-07T14:21:28.826Z,11.62
2018-03-07T14:24:01.815Z,11.72
2018-03-07T14:26:32.784Z,11.75
2018-03-07T14:29:09.205Z,11.31
2018-03-07T14:32:13.596Z,11.31
2018-03-07T14:35:08.644Z,11.46
2018-03-07T14:37:40.962Z,11.24
2018-03-07T14:40:13.178Z,10.63
2018-03-07T14:42:45.659Z,10.65
2018-03-07T14:45:20.015Z,10.99
2018-03-07T14:47:51.623Z,11.11
2018-03-07T14:50:23.971Z,11.24
2018-03-07T14:52:59.766Z,11.43
2018-03-07T14:55:31.851Z,11.38
2018-03-07T14:58:03.222Z,11.89
2018-03-07T15:00:37.426Z,11.97
2018-03-07T15:03:09.457Z,11.86
2018-03-07T15:05:40.456Z,11.79
2018-03-07T15:08:12.435Z,11.43
2018-03-07T15:10:43.379Z,10.74
2018-03-07T15:13:15.911Z,11.26
2018-03-07T15:15:49.007Z,11.28
2018-03-07T15:18:22.450Z,10.71
2018-03-07T15:20:54.021Z,11.12
2018-03-07T15:23:25.755Z,11.29
2018-03-07T15:25:57.746Z,11.20
2018-03-07T15:28:29.361Z,11.02
2018-03-07T15:31:02.529Z,11.11
2018-03-07T15:33:34.827Z,11.41
2018-03-07T15:36:06.236Z,11.50
2018-03-07T15:38:37.506Z,11.58
2018-03-07T15:41:09.047Z,11.74
2018-03-07T15:43:43.224Z,11.86
2018-03-07T15:49:00.913Z,11.37
2018-03-07T15:51:33.304Z,11.99
2018-03-07T15:54:07.953Z,12.23
2018-03-07T15:56:39.004Z,11.96
2018-03-07T15:59:11.123Z,11.82
2018-03-07T16:01:42.961Z,11.53
2018-03-07T16:04:14.275Z,11.43
2018-03-07T16:06:51.353Z,11.45
2018-03-07T16:09:23.003Z,11.45
2018-03-07T16:11:53.953Z,11.31
2018-03-07T16:14:27.767Z,11.52
2018-03-07T16:16:59.038Z,11.10
2018-03-07T16:19:31.177Z,11.19
2018-03-07T16:22:04.228Z,11.24
2018-03-07T16:24:35.699Z,11.32
2018-03-07T16:27:11.850Z,11.03
2018-03-07T16:29:42.835Z,11.08
2018-03-07T16:32:14.515Z,11.10
2018-03-07T16:34:45.331Z,11.41
2018-03-07T16:37:16.474Z,11.52
2018-03-07T16:40:17.240Z,11.44
2018-03-07T16:42:49.550Z,11.54
2018-03-07T16:45:20.854Z,11.60
2018-03-07T16:47:51.902Z,11.32
2018-03-07T16:50:25.913Z,11.17
2018-03-07T16:52:57.180Z,11.30
2018-03-07T16:55:33.399Z,11.21
2018-03-07T16:58:10.228Z,11.43
2018-03-07T17:00:42.334Z,11.35
2018-03-07T17:03:15.830Z,10.68
2018-03-07T17:05:48.599Z,11.67
2018-03-07T17:08:22.339Z,11.68
2018-03-07T17:10:55.722Z,11.45
2018-03-07T17:13:29.716Z,11.22
2018-03-07T17:16:04.188Z,11.10
2018-03-07T17:18:47.019Z,10.92
2018-03-07T17:21:21.276Z,10.83
2018-03-07T17:24:03.242Z,10.81
2018-03-07T17:26:38.926Z,10.80
2018-03-07T17:29:16.656Z,10.79
2018-03-07T17:31:55.575Z,10.58
2018-03-07T17:35:00.924Z,10.91
2018-03-07T17:37:33.784Z,10.96
2018-03-07T17:40:12.345Z,10.88
2018-03-07T17:42:43.815Z,10.70
2018-03-07T17:45:30.268Z,10.70
2018-03-07T17:48:03.260Z,10.77
2018-03-07T17:50:37.744Z,10.76
2018-03-07T17:53:09.904Z,10.62
2018-03-07T17:55:43.894Z,10.28
2018-03-07T17:58:15.323Z,10.55
2018-03-07T18:00:46.846Z,10.47
2018-03-07T18:03:21.824Z,10.46
2018-03-07T18:05:54.480Z,10.44
2018-03-07T18:08:27.310Z,10.10
2018-03-07T18:11:02.166Z,10.11
2018-03-07T18:13:37.173Z,9.91
2018-03-07T18:16:09.226Z,9.97
2018-03-07T18:18:40.240Z,10.02
2018-03-07T18:21:11.388Z,9.66
2018-03-07T18:23:42.191Z,9.57
2018-03-07T18:26:13.897Z,9.52
2018-03-07T18:28:47.457Z,9.76
2018-03-07T18:31:29.651Z,9.72
2018-03-07T18:34:03.044Z,9.58
2018-03-07T18:36:34.715Z,9.36
2018-03-07T18:39:06.837Z,9.46
2018-03-07T18:41:38.699Z,9.44
2018-03-07T18:44:12.151Z,9.62
2018-03-07T18:46:43.508Z,9.43
2018-03-07T18:49:14.293Z,9.56
2018-03-07T18:51:47.359Z,9.67
2018-03-07T18:54:18.943Z,9.60
2018-03-07T18:56:49.619Z,9.68
2018-03-07T18:59:25.661Z,9.52
2018-03-07T19:02:00.029Z,9.49
2018-03-07T19:04:32.692Z,9.62
2018-03-07T19:07:03.742Z,9.57
2018-03-07T19:09:34.936Z,9.51
2018-03-07T19:12:08.512Z,9.67
2018-03-07T19:14:40.313Z,9.70
2018-03-07T19:17:11.309Z,9.71
2018-03-07T19:19:46.415Z,9.43
2018-03-07T19:22:17.355Z,9.67
2018-03-07T19:24:49.177Z,9.75
2018-03-07T19:27:21.949Z,9.84
2018-03-07T19:29:52.916Z,9.75
2018-03-07T19:32:24.604Z,9.59
2018-03-07T19:34:55.642Z,9.57
2018-03-07T19:37:36.986Z,9.60
2018-03-07T19:40:08.177Z,9.42
2018-03-07T19:42:38.951Z,9.28
2018-03-07T19:45:10.316Z,9.53
2018-03-07T19:47:44.045Z,9.24
2018-03-07T19:50:20.080Z,9.45
2018-03-07T19:52:51.451Z,9.55
2018-03-07T19:55:24.718Z,9.65
2018-03-07T19:57:59.503Z,9.63
2018-03-07T20:00:32.142Z,8.41
2018-03-07T20:03:05.739Z,9.70
2018-03-07T20:05:38.521Z,9.56
2018-03-07T20:08:09.610Z,9.46
2018-03-07T20:10:40.268Z,9.34
2018-03-07T20:13:11.379Z,9.35
2018-03-07T20:15:42.511Z,9.37
2018-03-07T20:18:13.493Z,9.42
2018-03-07T20:20:45.246Z,9.38
2018-03-07T20:23:16.209Z,9.47
2018-03-07T20:25:47.966Z,9.60
2018-03-07T20:30:54.443Z,9.52
2018-03-07T20:33:25.033Z,9.49
2018-03-07T20:35:55.839Z,9.41
2018-03-07T20:38:28.482Z,9.33
2018-03-07T20:40:59.486Z,9.35
2018-03-07T20:43:31.321Z,9.40
2018-03-07T20:46:03.249Z,9.52
2018-03-07T20:48:34.501Z,9.46
2018-03-07T20:51:05.370Z,9.31
2018-03-07T20:53:36.156Z,9.42
2018-03-07T20:56:07.157Z,9.55
2018-03-07T20:58:38.524Z,9.43
2018-03-07T21:03:39.806Z,9.28
2018-03-07T21:06:11.345Z,9.23
2018-03-07T21:08:44.009Z,9.17
2018-03-07T21:11:15.969Z,9.02
2018-03-07T21:13:48.388Z,8.98
2018-03-07T21:16:20.387Z,8.89
2018-03-07T21:18:53.145Z,8.81
2018-03-07T21:21:25.963Z,8.56
2018-03-07T21:23:58.155Z,8.47
2018-03-07T21:26:30.155Z,8.48
2018-03-07T21:29:02.617Z,8.48
2018-03-07T21:31:39.846Z,8.46
2018-03-07T21:34:14.234Z,8.36
2018-03-07T21:36:45.206Z,8.38
2018-03-07T21:39:17.109Z,8.44
2018-03-07T21:41:47.898Z,8.47
2018-03-07T21:44:22.696Z,8.32
2018-03-07T21:46:53.873Z,8.44
2018-03-07T21:49:26.583Z,8.38
2018-03-07T21:51:57.375Z,8.39
2018-03-07T21:54:28.258Z,8.32
2018-03-07T21:57:00.643Z,8.36
2018-03-07T21:59:34.492Z,8.15
2018-03-07T22:02:05.581Z,8.16
2018-03-07T22:04:37.502Z,8.01
2018-03-07T22:07:09.215Z,7.96
2018-03-07T22:09:40.511Z,8.06
2018-03-07T22:12:11.662Z,8.15
2018-03-07T22:14:43.264Z,8.29
2018-03-07T22:17:14.773Z,8.21
2018-03-07T22:19:53.525Z,8.17
2018-03-07T22:22:25.166Z,8.19
2018-03-07T22:24:56.381Z,8.23
2018-03-07T22:27:27.416Z,8.28
2018-03-07T22:29:58.289Z,8.16
2018-03-07T22:32:29.614Z,8.16
2018-03-07T22:35:01.251Z,8.25
2018-03-07T22:37:33.191Z,8.38
2018-03-07T22:40:04.685Z,8.28
2018-03-07T22:42:36.637Z,8.31
2018-03-07T22:45:08.676Z,8.38
2018-03-07T22:47:40.161Z,8.41
2018-03-07T22:50:12.783Z,8.25
2018-03-07T22:52:43.579Z,8.43
2018-03-07T22:55:14.916Z,8.54
2018-03-07T22:57:46.074Z,8.36
2018-03-07T23:00:25.920Z,8.38
2018-03-07T23:02:56.976Z,8.50
2018-03-07T23:05:28.353Z,8.56
2018-03-07T23:07:59.508Z,8.73
2018-03-07T23:10:31.626Z,8.68
2018-03-07T23:13:03.114Z,8.64
2018-03-07T23:15:35.057Z,8.71
2018-03-07T23:18:06.497Z,8.76
2018-03-07T23:20:43.723Z,8.69
2018-03-07T23:23:17.053Z,8.63
2018-03-07T23:25:48.305Z,8.61
2018-03-07T23:28:19.595Z,8.70
2018-03-07T23:30:51.326Z,8.70
2018-03-07T23:33:22.724Z,8.64
2018-03-07T23:35:54.035Z,8.72
2018-03-07T23:38:25.095Z,8.75
2018-03-07T23:40:56.230Z,8.77
2018-03-07T23:43:27.680Z,8.76
2018-03-07T23:45:58.987Z,8.95
2018-03-07T23:48:30.343Z,8.93
2018-03-07T23:51:01.546Z,8.87
2018-03-07T23:53:33.698Z,8.66
2018-03-07T23:56:06.100Z,8.71
2018-03-07T23:58:38.966Z,8.70
